Time;durP1;ratioP1;P1;durP2;ratioP2;P2;SDS_P1;SDS_P2;PMS_P1;PMS_P2;Temp;Humidity;BMP_temperature;BMP_pressure;BME280_temperature;BME280_humidity;BME280_pressure;Samples;Min_cycle;Max_cycle;Signal;HPM_P1;HPM_P2
2022/04/06 07:39:21;;;;;;;14.18;8.13;;;;;;;11.62;38.33;99672.78;5150194;23;20090;-76
2022/04/06 07:41:47;;;;;;;21.85;8.63;;;;;;;11.37;38.86;99679.22;4957537;29;20055;-76
2022/04/06 07:44:13;;;;;;;14.40;8.02;;;;;;;11.08;38.26;99670.75;4909447;29;20110;-83
2022/04/06 07:46:39;;;;;;;11.10;7.90;;;;;;;10.90;37.91;99674.84;4924419;29;20137;-80
2022/04/06 07:49:06;;;;;;;16.02;7.78;;;;;;;10.96;38.47;99665.50;4940057;29;20066;-79
2022/04/06 07:51:32;;;;;;;14.63;7.28;;;;;;;10.98;39.83;99671.56;4940197;29;20409;-77
2022/04/06 07:53:57;;;;;;;12.95;7.78;;;;;;;11.03;41.60;99654.22;4938629;29;20042;-77
2022/04/06 07:56:23;;;;;;;11.35;8.40;;;;;;;11.11;39.70;99657.16;4924007;29;20058;-76
2022/04/06 07:58:49;;;;;;;15.98;7.97;;;;;;;10.86;38.77;99652.81;4923972;29;20043;-78
2022/04/06 08:01:15;;;;;;;21.85;8.80;;;;;;;11.02;39.65;99640.94;4940259;29;20524;-74
2022/04/06 08:03:41;;;;;;;17.77;7.20;;;;;;;10.90;38.78;99651.63;4924135;29;20043;-79
2022/04/06 08:06:07;;;;;;;31.92;7.90;;;;;;;11.08;38.50;99645.84;4925376;29;20395;-75
2022/04/06 08:08:33;;;;;;;13.93;7.55;;;;;;;11.29;38.59;99652.19;4940209;29;20046;-78
2022/04/06 08:10:59;;;;;;;19.40;7.82;;;;;;;11.48;38.22;99648.09;4956195;29;20036;-77
2022/04/06 08:13:25;;;;;;;10.75;6.90;;;;;;;11.51;37.36;99659.41;4940189;29;20051;-83
2022/04/06 08:15:51;;;;;;;20.48;8.13;;;;;;;11.84;37.62;99639.81;4940056;29;20054;-76
2022/04/06 08:18:17;;;;;;;14.02;7.20;;;;;;;12.03;37.83;99638.31;4939187;29;20273;-80
2022/04/06 08:20:43;;;;;;;19.85;7.60;;;;;;;11.78;38.15;99637.59;4923917;29;20129;-79
2022/04/06 08:23:09;;;;;;;20.25;7.72;;;;;;;11.78;37.58;99644.78;4956649;29;20074;-84
2022/04/06 08:25:35;;;;;;;9.80;7.20;;;;;;;11.80;36.65;99635.66;4930819;29;20094;-78
2022/04/06 08:28:00;;;;;;;13.93;7.03;;;;;;;11.93;36.49;99632.03;4920866;29;20106;-89
2022/04/06 08:30:26;;;;;;;15.02;7.00;;;;;;;11.94;36.14;99628.38;4921882;29;20506;-91
2022/04/06 08:32:58;;;;;;;11.57;7.03;;;;;;;11.85;36.47;99630.81;4920084;29;20059;-89
2022/04/06 08:35:25;;;;;;;10.75;6.78;;;;;;;12.22;42.51;99622.44;4936474;29;20078;-86
2022/04/06 08:37:52;;;;;;;15.65;6.72;;;;;;;12.99;44.80;99629.44;4938426;29;20534;-79
2022/04/06 08:40:18;;;;;;;9.70;6.80;;;;;;;13.15;35.86;99632.50;4955962;29;20055;-83
2022/04/06 08:42:46;;;;;;;12.35;6.72;;;;;;;13.36;35.67;99625.31;4960937;29;20455;-91
2022/04/06 08:45:12;;;;;;;10.27;7.28;;;;;;;13.20;34.67;99630.28;4947793;29;20494;-88
2022/04/06 08:47:39;;;;;;;34.63;8.20;;;;;;;13.01;35.13;99619.41;4940398;29;20039;-89
2022/04/06 08:50:06;;;;;;;22.40;7.53;;;;;;;13.00;34.80;99623.91;4940946;29;20133;-92
2022/04/06 08:52:33;;;;;;;9.57;5.97;;;;;;;12.87;34.50;99616.06;4936983;29;20067;-92
2022/04/06 08:55:00;;;;;;;10.75;6.45;;;;;;;12.61;38.26;99622.78;4943264;28;20138;-79
2022/04/06 08:57:29;;;;;;;12.18;6.38;;;;;;;12.82;36.86;99615.59;4957958;28;20122;-79
2022/04/06 08:59:55;;;;;;;;;;;;;;;13.07;37.83;99621.56;4954872;28;20046;-78
2022/04/06 09:02:23;;;;;;;12.38;5.95;;;;;;;13.35;38.89;99623.59;4958330;28;19918;-80
2022/04/06 09:04:50;;;;;;;11.32;6.05;;;;;;;13.59;38.53;99622.44;4981166;28;20046;-80
2022/04/06 09:07:20;;;;;;;10.05;5.28;;;;;;;13.90;39.54;99623.25;4959555;28;20045;-80
2022/04/06 09:09:54;;;;;;;11.80;5.68;;;;;;;14.05;35.82;99621.88;4972235;28;20054;-84
2022/04/06 09:12:23;;;;;;;7.35;4.78;;;;;;;13.79;31.97;99618.81;4976385;28;20414;-88
2022/04/06 09:15:08;;;;;;;;;;;;;;;13.36;32.08;99622.63;4974840;28;20078;-90
2022/04/06 09:17:53;;;;;;;14.52;5.10;;;;;;;12.59;33.31;99624.75;4946739;28;20443;-80
2022/04/06 09:20:24;;;;;;;10.68;4.65;;;;;;;12.26;32.98;99607.84;4960033;28;20128;-86
2022/04/06 09:22:50;;;;;;;6.13;4.60;;;;;;;12.05;33.21;99621.16;4967285;28;20059;-83
2022/04/06 09:25:19;;;;;;;8.52;4.55;;;;;;;12.02;32.88;99624.06;4933081;28;20597;-82
2022/04/06 09:27:46;;;;;;;6.88;4.72;;;;;;;11.89;32.85;99610.84;4965549;28;20117;-83
2022/04/06 09:30:12;;;;;;;14.27;4.60;;;;;;;11.73;33.10;99610.31;4951228;28;20539;-83
2022/04/06 09:32:41;;;;;;;8.75;4.57;;;;;;;11.45;33.18;99605.50;4982116;28;20508;-84
2022/04/06 09:35:25;;;;;;;14.13;5.13;;;;;;;11.29;33.66;99611.22;4933032;28;20038;-83
2022/04/06 09:38:22;;;;;;;6.97;4.10;;;;;;;11.39;33.62;99609.50;4966729;28;20050;-83
2022/04/06 09:40:59;;;;;;;12.55;4.80;;;;;;;11.66;33.41;99609.16;4937784;28;20125;-83
2022/04/06 09:43:30;;;;;;;13.02;4.80;;;;;;;11.88;33.63;99603.78;4969156;28;20055;-84
2022/04/06 09:49:03;;;;;;;8.25;4.72;;;;;;;12.48;32.94;99590.78;4950026;28;20570;-84
2022/04/06 09:51:29;;;;;;;15.52;4.72;;;;;;;12.88;32.43;99587.41;4966059;28;20117;-82
2022/04/06 09:53:55;;;;;;;53.15;6.32;;;;;;;13.19;32.56;99577.56;4964335;28;20447;-83
2022/04/06 09:56:22;;;;;;;9.55;4.80;;;;;;;13.23;31.07;99587.06;4983557;28;20125;-85
2022/04/06 09:58:49;;;;;;;24.63;4.90;;;;;;;13.04;30.92;99584.25;4982311;28;20077;-81
2022/04/06 10:01:16;;;;;;;27.70;4.93;;;;;;;12.62;31.11;99582.44;4981812;28;20043;-83
2022/04/06 10:04:06;;;;;;;18.45;5.05;;;;;;;12.48;30.48;99581.88;4959552;28;20480;-82
2022/04/06 10:06:37;;;;;;;6.22;4.30;;;;;;;12.52;30.68;99588.69;4932778;28;20047;-83
2022/04/06 10:09:08;;;;;;;14.65;4.78;;;;;;;12.69;31.12;99582.78;4957721;28;20139;-83
2022/04/06 10:11:36;;;;;;;13.77;4.85;;;;;;;12.55;30.77;99575.88;4941419;28;20081;-84
2022/04/06 10:14:08;;;;;;;20.67;4.40;;;;;;;12.57;31.57;99586.50;4941236;28;20076;-83
2022/04/06 10:16:36;;;;;;;7.95;4.10;;;;;;;12.43;31.79;99578.75;4941490;28;20050;-82
2022/04/06 10:19:06;;;;;;;44.88;6.03;;;;;;;12.75;31.58;99570.66;4974898;28;20042;-82
2022/04/06 10:21:48;;;;;;;6.38;3.60;;;;;;;12.68;31.32;99562.31;4957558;28;20101;-81
2022/04/06 10:24:52;;;;;;;7.10;4.05;;;;;;;12.76;30.98;99567.84;4957468;28;20125;-80
2022/04/06 10:27:25;;;;;;;6.78;4.03;;;;;;;12.98;30.73;99568.69;4974063;28;20049;-81
2022/04/06 10:30:22;;;;;;;10.13;4.15;;;;;;;13.19;30.64;99568.66;4941219;28;20468;-82
2022/04/06 10:32:51;;;;;;;6.10;3.42;;;;;;;13.36;31.21;99563.53;4957415;28;20047;-81
2022/04/06 10:35:22;;;;;;;11.13;4.72;;;;;;;13.63;30.73;99562.09;4925119;28;20460;-82
2022/04/06 10:37:52;;;;;;;10.55;4.05;;;;;;;13.68;30.61;99554.44;4940709;28;20058;-82
2022/04/06 10:40:18;;;;;;;10.77;4.95;;;;;;;13.67;30.53;99558.13;4956220;28;20512;-81
2022/04/06 10:42:46;;;;;;;13.20;4.90;;;;;;;13.68;30.22;99549.06;4974106;28;20051;-81
2022/04/06 10:45:27;;;;;;;7.97;4.57;;;;;;;14.10;29.94;99554.25;4972829;28;20061;-82
2022/04/06 10:48:18;;;;;;;21.33;5.82;;;;;;;14.38;29.66;99535.59;4925009;28;20089;-82
2022/04/06 10:50:46;;;;;;;15.82;5.07;;;;;;;14.30;28.92;99523.69;4941089;28;20047;-82
2022/04/06 10:53:18;;;;;;;11.07;5.35;;;;;;;14.63;29.54;99532.34;4972195;28;20046;-82
2022/04/06 10:55:56;;;;;;;10.85;4.88;;;;;;;14.88;29.57;99533.53;4942871;28;20053;-84
2022/04/06 10:58:24;;;;;;;18.17;5.53;;;;;;;14.61;29.98;99520.88;4976663;28;20516;-82
2022/04/06 11:01:18;;;;;;;10.75;4.90;;;;;;;14.66;30.15;99523.97;4960974;28;20061;-83
2022/04/06 11:04:16;;;;;;;9.02;5.03;;;;;;;15.11;30.24;99520.56;4953469;28;20484;-82
2022/04/06 11:06:44;;;;;;;12.45;5.00;;;;;;;15.54;29.50;99514.59;4925371;29;20039;-82
2022/04/06 11:12:22;;;;;;;12.93;5.20;;;;;;;16.25;28.91;99500.34;4925601;29;20043;-83
2022/04/06 11:15:00;;;;;;;9.15;4.93;;;;;;;16.64;28.22;99502.69;4941194;29;20047;-82
2022/04/06 11:17:34;;;;;;;12.10;4.80;;;;;;;16.60;28.01;99512.09;4941253;29;20047;-82
2022/04/06 11:20:05;;;;;;;11.48;4.13;;;;;;;16.51;28.27;99503.09;4909844;29;20462;-84
2022/04/06 11:22:39;;;;;;;6.55;3.92;;;;;;;16.59;28.52;99499.63;4925561;29;20053;-83
2022/04/06 11:25:13;;;;;;;7.40;3.90;;;;;;;16.40;28.32;99499.81;4958151;29;20048;-82
2022/04/06 11:27:41;;;;;;;11.68;3.92;;;;;;;16.34;29.30;99511.22;4909060;29;20058;-82
2022/04/06 11:30:13;;;;;;;8.93;3.72;;;;;;;16.31;28.66;99495.31;4940594;29;20039;-82
2022/04/06 11:32:59;;;;;;;7.28;4.32;;;;;;;16.24;28.65;99477.06;4940662;29;20133;-83
2022/04/06 11:35:34;;;;;;;9.05;4.88;;;;;;;16.35;29.31;99488.63;4940799;29;20054;-82
2022/04/06 11:38:03;;;;;;;8.98;4.88;;;;;;;16.18;28.96;99475.00;4952336;28;20107;-83
2022/04/06 11:40:29;;;;;;;17.80;5.43;;;;;;;15.86;29.39;99489.00;4943759;28;20065;-83
2022/04/06 11:43:04;;;;;;;5.85;5.20;;;;;;;15.44;29.95;99496.78;4959819;28;20073;-82
2022/04/06 11:45:37;;;;;;;12.90;5.60;;;;;;;15.32;30.47;99489.91;4959558;28;20050;-84
2022/04/06 11:48:08;;;;;;;6.40;5.65;;;;;;;15.29;30.72;99483.78;4940603;29;20042;-83
2022/04/06 11:50:37;;;;;;;9.63;5.18;;;;;;;15.40;30.73;99488.13;4967414;28;20575;-83
2022/04/06 11:53:05;;;;;;;6.82;4.85;;;;;;;16.18;30.06;99480.41;4927362;28;20508;-84
2022/04/06 11:55:44;;;;;;;6.45;4.50;;;;;;;16.49;29.24;99480.81;4960512;28;20047;-89
2022/04/06 11:58:10;;;;;;;11.35;4.95;;;;;;;16.80;28.90;99471.44;4960990;28;20109;-90
2022/04/06 12:00:36;;;;;;;15.07;5.18;;;;;;;16.66;28.59;99472.81;4931046;28;20042;-92
2022/04/06 12:03:02;;;;;;;91.80;7.30;;;;;;;16.40;27.99;99467.44;4978159;28;20050;-91
2022/04/06 12:05:33;;;;;;;27.70;6.15;;;;;;;15.92;28.29;99468.69;4960944;28;20050;-85
2022/04/06 12:08:13;;;;;;;11.02;4.78;;;;;;;15.08;29.58;99469.72;4976755;28;20046;-84
2022/04/06 12:10:51;;;;;;;18.20;5.05;;;;;;;15.02;30.06;99465.78;4945152;28;20094;-88
2022/04/06 12:13:19;;;;;;;10.55;5.07;;;;;;;15.23;29.98;99460.19;4959465;28;20052;-88
2022/04/06 12:15:48;;;;;;;54.85;6.30;;;;;;;15.29;29.73;99450.63;4970056;28;20047;-86
2022/04/06 12:18:19;;;;;;;231.45;16.60;;;;;;;15.44;29.03;99448.28;4959428;28;20112;-89
2022/04/06 12:20:46;;;;;;;17.15;4.80;;;;;;;15.73;29.84;99454.34;4960024;28;20125;-91
2022/04/06 12:23:13;;;;;;;12.98;4.55;;;;;;;16.13;29.65;99450.31;4943846;28;20054;-82
2022/04/06 12:25:39;;;;;;;9.65;4.20;;;;;;;16.37;28.38;99435.38;4960406;28;20042;-84
2022/04/06 12:28:13;;;;;;;15.57;5.20;;;;;;;16.54;28.45;99429.06;4981283;28;20054;-87
2022/04/06 12:30:54;;;;;;;10.82;5.05;;;;;;;17.02;27.90;99433.06;4976614;28;20050;-88
2022/04/06 12:33:39;;;;;;;12.80;5.07;;;;;;;16.88;28.07;99430.97;4942780;28;20133;-91
2022/04/06 12:36:13;;;;;;;7.72;4.13;;;;;;;16.88;28.26;99428.28;4944441;28;20039;-81
2022/04/06 12:38:42;;;;;;;8.63;4.43;;;;;;;16.50;29.04;99433.09;4942472;28;20055;-86
2022/04/06 12:41:13;;;;;;;12.93;4.68;;;;;;;16.44;29.86;99420.25;4976745;28;20105;-86
2022/04/06 12:43:40;;;;;;;8.88;4.90;;;;;;;16.81;29.26;99421.81;4977290;28;20533;-85
2022/04/06 12:46:06;;;;;;;14.43;5.38;;;;;;;16.65;28.95;99407.19;4958738;28;20058;-85
2022/04/06 12:48:32;;;;;;;16.88;6.20;;;;;;;16.63;28.76;99428.13;4944171;28;20445;-84
2022/04/06 12:50:58;;;;;;;18.67;5.47;;;;;;;16.29;29.50;99421.81;4959977;28;20074;-88
2022/04/06 12:53:24;;;;;;;40.85;6.63;;;;;;;16.02;29.80;99419.09;4960206;28;20952;-88
2022/04/06 12:56:13;;;;;;;7.82;4.80;;;;;;;16.14;39.30;99424.22;4976588;28;20086;-85
2022/04/06 12:58:39;;;;;;;9.55;5.90;;;;;;;16.32;32.02;99410.69;4942720;28;20070;-81
2022/04/06 13:01:09;;;;;;;15.57;7.00;;;;;;;16.31;31.16;99406.31;4957978;28;20132;-86
2022/04/06 13:03:36;;;;;;;8.68;4.88;;;;;;;16.22;31.76;99397.31;4942149;28;20042;-90
2022/04/06 13:06:02;;;;;;;10.70;5.03;;;;;;;15.89;30.12;99402.44;4976892;28;20042;-89
2022/04/06 13:08:28;;;;;;;7.32;5.50;;;;;;;15.50;30.65;99393.81;4960466;28;20047;-87
2022/04/06 13:10:54;;;;;;;10.15;5.70;;;;;;;15.03;31.30;99385.88;4977212;28;20051;-88
2022/04/06 13:13:20;;;;;;;12.50;5.07;;;;;;;14.94;31.53;99402.94;4928155;28;20053;-89
2022/04/06 13:15:46;;;;;;;10.18;5.20;;;;;;;14.80;31.85;99397.03;4963084;28;20051;-93
2022/04/06 13:18:14;;;;;;;25.65;8.63;;;;;;;14.37;32.67;99404.78;4962600;28;20042;-91
2022/04/06 13:20:40;;;;;;;20.55;6.75;;;;;;;14.30;32.62;99397.31;4928619;28;20049;-90
2022/04/06 13:23:06;;;;;;;15.88;6.15;;;;;;;14.32;32.93;99373.81;4960041;28;20053;-92
2022/04/06 13:25:32;;;;;;;20.75;6.50;;;;;;;14.06;32.95;99386.19;4948235;28;20034;-88
2022/04/06 13:28:01;;;;;;;12.68;6.25;;;;;;;13.75;33.34;99374.75;4926867;28;20085;-90
2022/04/06 13:30:27;;;;;;;;;;;;;;;13.26;34.25;99376.56;4929115;28;20113;-88
2022/04/06 13:32:56;;;;;;;16.67;6.75;;;;;;;12.69;35.22;99373.56;4926146;28;20305;-89
2022/04/06 13:35:21;;;;;;;;;;;;;;;12.41;35.73;99380.47;4976072;28;20128;-91
2022/04/06 13:37:47;;;;;;;11.73;5.68;;;;;;;12.34;35.88;99372.16;4926699;28;20388;-90
2022/04/06 13:40:14;;;;;;;9.73;6.15;;;;;;;12.39;36.22;99377.09;4943544;28;20054;-88
2022/04/06 13:42:40;;;;;;;21.08;6.82;;;;;;;11.98;36.58;99346.69;4975164;28;20074;-89
2022/04/06 13:45:09;;;;;;;12.70;6.07;;;;;;;11.70;37.16;99353.53;4927564;28;20069;-90
2022/04/06 13:47:36;;;;;;;52.30;7.95;;;;;;;11.30;38.35;99348.81;4961858;28;20043;-88
2022/04/06 13:54:01;;;;;;;14.35;6.30;;;;;;;10.67;39.29;99334.38;4956179;29;20038;-91
2022/04/06 13:56:27;;;;;;;19.08;7.20;;;;;;;10.47;40.11;99335.16;4958281;28;20057;-90
2022/04/06 13:58:53;;;;;;;9.50;6.22;;;;;;;10.31;40.25;99324.84;4959467;28;20043;-89
2022/04/06 14:01:19;;;;;;;15.27;7.25;;;;;;;10.17;40.57;99344.56;4943481;28;20043;-89
2022/04/06 14:03:45;;;;;;;25.27;7.10;;;;;;;10.02;41.10;99343.09;4961121;28;20077;-89
2022/04/06 14:06:13;;;;;;;32.58;6.60;;;;;;;9.93;41.22;99342.84;4977831;28;20102;-90
2022/04/06 14:17:48;;;;;;;11.85;6.55;;;;;;;9.06;43.02;99295.25;4787227;29;20055;-92
2022/04/06 14:21:36;;;;;;;;;;;;;;;;;;;;;
2022/04/06 14:25:15;;;;;;;15.75;6.43;;;;;;;8.89;43.58;99309.84;4767712;30;20143;-91
2022/04/06 14:28:09;;;;;;;10.48;6.72;;;;;;;8.97;43.82;99321.63;4754926;30;20074;-91
2022/04/06 14:36:00;;;;;;;30.05;7.80;;;;;;;8.36;46.20;99304.75;4755453;30;20090;-93
2022/04/06 14:39:09;;;;;;;19.92;7.70;;;;;;;8.16;45.94;99276.88;5149854;23;20065;-92
2022/04/06 14:55:13;;;;;;;21.52;7.30;;;;;;;7.62;47.79;99274.44;4009878;26;20059;-91
2022/04/06 15:01:34;;;;;;;13.75;6.63;;;;;;;7.45;48.17;99243.72;4871265;29;20109;-94
2022/04/06 15:04:32;;;;;;;13.52;6.55;;;;;;;7.44;48.58;99249.13;4857736;29;20045;-92
2022/04/06 15:07:39;;;;;;;26.27;16.48;;;;;;;7.36;48.61;99248.78;4906901;29;20064;-90
2022/04/06 15:10:40;;;;;;;8.23;5.30;;;;;;;7.51;49.01;99263.69;4874473;29;20115;-91
2022/04/06 15:17:37;;;;;;;9.73;6.30;;;;;;;7.50;49.57;99284.13;4795393;30;20059;-90
2022/04/06 15:20:37;;;;;;;6.60;5.10;;;;;;;7.40;49.56;99256.44;4818890;29;20060;-92
2022/04/06 15:23:29;;;;;;;15.15;5.28;;;;;;;7.35;50.41;99261.25;4834664;29;20096;-91
2022/04/06 15:27:05;;;;;;;;;;;;;;;;;;;;;
2022/04/06 15:43:55;;;;;;;;;;;;;;;;;;;;;
2022/04/06 15:49:38;;;;;;;7.82;5.95;;;;;;;6.85;56.07;99276.13;4767755;23;20264;-91
2022/04/06 15:52:57;;;;;;;;;;;;;;;;;;;;;
2022/04/06 15:56:17;;;;;;;;;;;;;;;;;;;;;
2022/04/06 16:00:10;;;;;;;;;;;;;;;;;;;;;
2022/04/06 16:03:17;;;;;;;9.25;7.00;;;;;;;6.43;59.96;99254.06;4827970;29;20053;-92
2022/04/06 16:06:57;;;;;;;8.52;6.30;;;;;;;6.44;60.55;99265.53;4829845;29;20155;-91
2022/04/06 16:23:22;;;;;;;10.77;6.30;;;;;;;6.34;61.13;99209.50;5341357;23;20059;-86
2022/04/06 16:26:07;;;;;;;8.68;6.75;;;;;;;6.43;60.49;99231.94;4919362;28;20051;-85
2022/04/06 16:30:26;;;;;;;8.95;6.32;;;;;;;6.31;63.13;99244.22;4925719;29;20047;-92
2022/04/06 16:34:02;;;;;;;7.95;6.65;;;;;;;6.15;63.05;99248.81;4897652;29;20055;-92
2022/04/06 16:36:53;;;;;;;8.50;6.88;;;;;;;6.18;63.56;99232.69;4926549;29;20043;-88
2022/04/06 16:40:21;;;;;;;9.77;6.75;;;;;;;5.96;64.24;99218.13;4910792;29;20640;-89
2022/04/06 16:42:47;;;;;;;10.52;7.18;;;;;;;5.81;65.04;99208.44;4823558;29;20076;-81
2022/04/06 16:45:50;;;;;;;8.88;7.45;;;;;;;6.01;64.82;99223.97;4814985;29;20075;-91
2022/04/06 17:44:34;;;;;;;;;;;;;;;;;;;;;
2022/04/06 18:05:57;;;;;;;12.40;7.95;;;;;;;6.33;65.09;99133.47;4862526;29;20055;-91
2022/04/06 18:08:23;;;;;;;14.52;9.20;;;;;;;6.38;65.35;99152.59;4852553;29;20057;-96
2022/04/06 18:13:40;;;;;;;12.75;8.30;;;;;;;6.21;65.46;99123.69;4853736;29;20116;-96
2022/04/06 18:16:10;;;;;;;11.45;8.70;;;;;;;6.15;66.03;99126.72;4868786;29;20029;-95
2022/04/06 18:18:38;;;;;;;14.38;8.50;;;;;;;6.25;66.07;99149.91;4867077;29;20053;-96
2022/04/06 18:21:08;;;;;;;13.18;9.00;;;;;;;6.20;66.36;99143.19;4837262;29;20041;-93
2022/04/06 18:23:35;;;;;;;15.02;9.02;;;;;;;6.07;66.53;99135.19;4883380;23;20053;-95
2022/04/06 18:26:06;;;;;;;13.48;9.43;;;;;;;5.91;66.59;99124.69;4960207;23;20064;-95
2022/04/06 18:28:43;;;;;;;11.90;9.52;;;;;;;5.79;67.29;99125.44;4853403;29;20083;-95
2022/04/06 18:31:09;;;;;;;12.63;9.43;;;;;;;5.89;67.51;99141.66;4885136;29;20059;-94
2022/04/06 18:33:40;;;;;;;13.52;9.00;;;;;;;5.90;67.65;99138.88;4884293;29;20133;-96
2022/04/06 18:36:07;;;;;;;11.82;8.77;;;;;;;5.95;67.91;99141.28;4862373;29;20049;-94
2022/04/06 18:38:36;;;;;;;12.25;9.48;;;;;;;5.92;68.28;99152.06;4848878;29;20050;-95
2022/04/06 18:41:02;;;;;;;14.83;9.77;;;;;;;5.86;68.58;99142.69;4879615;29;20087;-94
2022/04/06 18:43:30;;;;;;;11.15;8.98;;;;;;;5.91;69.00;99137.09;4848005;29;20131;-94
2022/04/06 18:45:56;;;;;;;14.48;10.02;;;;;;;5.93;69.56;99136.06;4879940;29;20139;-93
2022/04/06 18:48:22;;;;;;;15.25;11.32;;;;;;;5.81;69.38;99126.22;4863901;29;20118;-95
2022/04/06 18:50:51;;;;;;;13.90;9.73;;;;;;;5.91;68.98;99124.69;4863091;29;20412;-93
2022/04/06 18:53:17;;;;;;;11.35;9.68;;;;;;;5.94;69.31;99127.19;4846494;29;20060;-94
2022/04/06 18:55:43;;;;;;;13.77;9.25;;;;;;;5.89;69.58;99115.97;4880124;29;20052;-94
2022/04/06 18:58:09;;;;;;;12.00;8.98;;;;;;;6.00;69.53;99126.75;4867467;29;20049;-93
2022/04/06 19:00:37;;;;;;;12.52;8.90;;;;;;;6.03;70.44;99145.16;4868255;29;20053;-93
2022/04/06 19:03:03;;;;;;;11.88;8.88;;;;;;;5.85;70.12;99123.25;4837621;29;20029;-95
2022/04/06 19:10:42;;;;;;;8.20;6.68;;;;;;;6.00;70.67;99134.72;4953086;23;20045;-94
2022/04/06 19:16:43;;;;;;;7.85;5.93;;;;;;;6.06;70.72;99147.59;5923816;23;20024;31
2022/04/06 19:25:12;;;;;;;8.30;6.55;;;;;;;5.82;70.29;99120.81;4885560;29;20060;-96
2022/04/06 19:27:39;;;;;;;7.25;5.85;;;;;;;5.81;71.05;99129.72;4849593;29;20062;-96
2022/04/06 19:30:07;;;;;;;10.20;6.82;;;;;;;5.78;70.50;99113.16;4833482;29;20044;-94
2022/04/06 19:32:35;;;;;;;9.63;6.55;;;;;;;5.79;71.38;99128.97;4850964;29;20119;-96
2022/04/06 19:35:09;;;;;;;8.75;7.22;;;;;;;5.66;71.97;99124.53;4850416;29;20041;-94
2022/04/06 19:37:36;;;;;;;9.43;7.53;;;;;;;5.72;72.31;99140.94;4842648;29;20054;-96
2022/04/06 19:40:03;;;;;;;11.70;7.38;;;;;;;5.68;73.19;99142.06;4864637;29;20069;-95
2022/04/06 19:42:33;;;;;;;11.07;7.63;;;;;;;5.80;72.59;99159.00;4861052;29;20049;-95
2022/04/06 19:45:05;;;;;;;10.48;7.28;;;;;;;5.75;72.87;99145.16;4845111;29;20091;-93
2022/04/06 19:47:34;;;;;;;11.20;7.65;;;;;;;5.58;73.16;99125.88;4846327;29;20052;-93
2022/04/06 19:50:02;;;;;;;11.13;7.82;;;;;;;5.65;73.32;99133.44;4861518;29;20050;-93
2022/04/06 19:52:30;;;;;;;10.43;7.60;;;;;;;5.60;73.73;99125.75;4860141;29;20097;-94
2022/04/06 19:54:56;;;;;;;10.13;7.55;;;;;;;5.59;74.58;99140.81;4858460;29;20045;-93
2022/04/06 19:57:23;;;;;;;10.18;8.20;;;;;;;5.42;74.65;99122.50;4842167;29;20042;-92
2022/04/06 19:59:49;;;;;;;15.15;8.63;;;;;;;5.55;74.43;99127.88;4823476;29;20042;-93
2022/04/06 20:02:17;;;;;;;11.85;8.65;;;;;;;5.70;74.58;99142.81;4846528;29;20065;-94
2022/04/06 20:04:43;;;;;;;18.15;12.55;;;;;;;5.66;74.63;99141.31;4834177;29;20049;-94
2022/04/06 20:07:09;;;;;;;10.68;8.30;;;;;;;5.64;74.94;99131.72;4867516;29;20045;-93
2022/04/06 20:09:35;;;;;;;10.32;8.10;;;;;;;5.48;75.06;99106.19;4866007;29;20159;-93
2022/04/06 20:12:02;;;;;;;12.05;8.77;;;;;;;5.52;75.21;99123.59;4855981;29;20044;-92
2022/04/06 20:14:28;;;;;;;11.13;8.40;;;;;;;5.59;75.36;99122.25;4855089;29;20106;-92
2022/04/06 20:16:57;;;;;;;11.45;8.20;;;;;;;5.58;75.53;99128.53;4854643;29;20085;-93
2022/04/06 20:19:23;;;;;;;11.03;8.03;;;;;;;5.69;75.45;99134.97;4823836;29;20042;-94
2022/04/06 20:21:49;;;;;;;13.27;8.75;;;;;;;5.58;75.54;99120.56;4859357;29;20279;-93
2022/04/06 20:24:15;;;;;;;11.65;9.15;;;;;;;5.70;75.06;99128.69;4861591;29;20102;-94
2022/04/06 20:26:42;;;;;;;12.25;8.95;;;;;;;5.59;75.21;99114.31;4853295;29;20046;-94
2022/04/06 20:29:08;;;;;;;11.63;8.88;;;;;;;5.57;75.75;99110.94;4860629;29;20042;-95
2022/04/06 20:31:34;;;;;;;9.98;8.68;;;;;;;5.74;74.97;99131.06;4876468;29;20064;-93
2022/04/06 20:34:01;;;;;;;11.98;8.15;;;;;;;5.73;74.97;99136.47;4880217;29;20036;-95
2022/04/06 20:36:28;;;;;;;11.75;8.75;;;;;;;5.63;74.72;99104.38;4883384;29;20124;-96
2022/04/06 20:38:54;;;;;;;9.02;7.85;;;;;;;5.55;75.08;99107.50;4849190;29;20049;-94
2022/04/06 20:41:24;;;;;;;13.57;8.43;;;;;;;5.66;74.48;99098.03;4868214;29;20080;-94
2022/04/06 20:43:55;;;;;;;10.38;8.30;;;;;;;5.68;74.54;99101.41;4857606;29;20038;-91
2022/04/06 20:46:23;;;;;;;10.00;8.10;;;;;;;5.67;74.80;99100.56;4870150;29;20436;-91
2022/04/06 20:48:50;;;;;;;10.73;8.38;;;;;;;5.77;74.38;99111.44;4866611;29;20404;-91
2022/04/06 20:51:17;;;;;;;9.02;7.43;;;;;;;5.71;74.72;99106.53;4851693;29;20128;-92
2022/04/06 20:53:44;;;;;;;9.90;7.88;;;;;;;5.71;74.83;99103.88;4842902;29;20029;-95
2022/04/06 20:56:11;;;;;;;10.30;7.68;;;;;;;5.67;74.78;99100.56;4863819;29;20037;-90
2022/04/06 20:58:39;;;;;;;11.98;7.80;;;;;;;5.69;74.60;99103.13;4841600;29;20056;-91
2022/04/06 21:01:09;;;;;;;9.48;7.72;;;;;;;5.65;74.75;99101.63;4840034;29;20056;-93
2022/04/06 21:03:35;;;;;;;10.30;7.85;;;;;;;5.66;74.50;99092.72;4872271;29;20067;-94
2022/04/06 21:06:02;;;;;;;10.75;7.25;;;;;;;5.63;74.60;99098.22;4858470;29;20052;-92
2022/04/06 21:08:28;;;;;;;9.35;7.60;;;;;;;5.60;74.68;99102.78;4845007;29;20041;-93
2022/04/06 21:10:54;;;;;;;9.85;7.55;;;;;;;5.66;74.25;99104.19;4859439;29;20625;-94
2022/04/06 21:13:20;;;;;;;8.05;7.13;;;;;;;5.70;74.55;99105.69;4872513;29;20048;-93
2022/04/06 21:15:48;;;;;;;7.95;6.70;;;;;;;5.73;74.35;99109.94;4839189;29;20081;-92
2022/04/06 21:18:15;;;;;;;8.73;7.07;;;;;;;5.68;74.47;99096.09;4852402;29;20048;-93
2022/04/06 21:20:42;;;;;;;11.57;7.70;;;;;;;5.67;74.11;99100.56;4866144;29;20049;-92
2022/04/06 21:23:08;;;;;;;10.32;7.35;;;;;;;5.74;74.20;99103.69;4854097;29;20088;-93
2022/04/06 21:25:34;;;;;;;8.50;6.50;;;;;;;5.79;74.04;99093.63;4871882;29;20100;-96
2022/04/06 21:28:00;;;;;;;8.18;6.38;;;;;;;5.77;73.92;99095.53;4872822;29;20065;-93
2022/04/06 21:30:26;;;;;;;8.90;6.13;;;;;;;5.75;73.81;99086.81;4871587;29;20049;-94
2022/04/06 21:32:54;;;;;;;8.27;7.03;;;;;;;5.68;73.91;99077.53;4855753;29;20041;-93
2022/04/06 21:35:20;;;;;;;8.82;6.97;;;;;;;5.64;73.85;99081.34;4853213;29;20105;-92
2022/04/06 21:37:46;;;;;;;9.80;6.63;;;;;;;5.67;73.80;99079.34;4869689;29;20033;-91
2022/04/06 21:40:12;;;;;;;9.05;7.07;;;;;;;5.59;74.02;99085.16;4869014;29;20102;-94
2022/04/06 21:42:38;;;;;;;10.20;7.10;;;;;;;5.52;74.00;99073.22;4837020;29;20038;-93
2022/04/06 21:45:05;;;;;;;7.97;6.60;;;;;;;5.60;74.07;99086.88;4861761;29;20113;-92
2022/04/06 21:47:31;;;;;;;6.30;5.70;;;;;;;5.63;73.70;99082.31;4885726;29;20097;-91
2022/04/06 21:49:58;;;;;;;7.20;6.40;;;;;;;5.58;73.53;99078.16;4855229;29;20061;-94
2022/04/06 21:52:25;;;;;;;7.55;5.90;;;;;;;5.54;73.64;99079.28;4884724;29;20048;-93
2022/04/06 21:54:51;;;;;;;10.85;6.25;;;;;;;5.52;73.68;99075.88;4883463;29;20049;-92
2022/04/06 21:57:17;;;;;;;8.95;6.35;;;;;;;5.50;73.57;99072.50;4885249;29;20060;-91
2022/04/06 21:59:46;;;;;;;6.03;5.10;;;;;;;5.49;73.23;99076.09;4881417;29;20053;-93
2022/04/06 22:02:13;;;;;;;8.43;5.28;;;;;;;5.48;73.32;99074.38;4883490;29;20053;-92
2022/04/06 22:04:40;;;;;;;6.20;5.53;;;;;;;5.40;73.49;99068.72;4854188;29;20033;-92
2022/04/06 22:07:06;;;;;;;9.13;6.05;;;;;;;5.42;73.40;99063.34;4853319;29;20072;-93
2022/04/06 22:09:32;;;;;;;7.25;5.18;;;;;;;5.43;73.53;99068.53;4870837;29;20053;-93
2022/04/06 22:11:57;;;;;;;6.13;5.15;;;;;;;5.42;73.26;99058.88;4870970;29;20073;-93
2022/04/06 22:14:23;;;;;;;8.43;5.63;;;;;;;5.39;73.49;99060.88;4879121;29;20041;-94
2022/04/06 22:16:49;;;;;;;7.65;5.22;;;;;;;5.39;73.34;99059.06;4876226;29;20037;-93
2022/04/06 22:19:15;;;;;;;8.68;5.85;;;;;;;5.35;73.04;99046.97;4876303;29;20098;-91
2022/04/06 22:21:41;;;;;;;6.28;5.45;;;;;;;5.28;73.40;99048.28;4835676;29;20466;-92
2022/04/06 22:24:07;;;;;;;7.47;5.50;;;;;;;5.21;73.53;99044.31;4865308;29;20057;-93
2022/04/06 22:26:34;;;;;;;6.57;5.43;;;;;;;5.21;73.75;99041.66;4851111;29;20121;-94
2022/04/06 22:29:00;;;;;;;6.28;4.80;;;;;;;5.24;73.45;99039.69;4835607;29;20076;-92
2022/04/06 22:31:28;;;;;;;6.85;4.88;;;;;;;5.20;73.39;99042.63;4871476;29;20076;-90
2022/04/06 22:33:54;;;;;;;8.50;5.05;;;;;;;5.19;73.75;99032.94;4863503;29;20045;-90
2022/04/06 22:36:20;;;;;;;6.70;4.63;;;;;;;5.16;73.97;99035.81;4858008;29;20485;-91